createdAt,value
2022-11-28T00:00:11.022Z,32.47
2022-11-28T00:02:44.887Z,33.63
2022-11-28T00:05:15.638Z,29.53
2022-11-28T00:07:45.837Z,25.90
2022-11-28T00:10:15.915Z,27.20
2022-11-28T00:12:45.991Z,29.40
2022-11-28T00:15:18.674Z,32.30
2022-11-28T00:17:48.835Z,26.93
2022-11-28T00:20:18.949Z,26.57
2022-11-28T00:22:48.902Z,24.40
2022-11-28T00:25:19.028Z,25.93
2022-11-28T00:27:49.236Z,31.67
2022-11-28T00:30:22.133Z,28.63
2022-11-28T00:32:52.032Z,24.43
2022-11-28T00:35:22.426Z,27.90
2022-11-28T00:37:52.437Z,23.70
2022-11-28T00:40:22.453Z,25.13
2022-11-28T00:42:52.455Z,26.03
2022-11-28T00:45:25.050Z,29.87
2022-11-28T00:47:54.987Z,22.97
2022-11-28T00:50:24.958Z,22.23
2022-11-28T00:52:54.972Z,23.97
2022-11-28T00:55:24.891Z,23.30
2022-11-28T00:57:55.361Z,24.87
2022-11-28T01:00:28.219Z,24.67
2022-11-28T01:02:58.251Z,24.47
2022-11-28T01:05:28.567Z,28.70
2022-11-28T01:07:58.670Z,29.97
2022-11-28T01:10:28.875Z,28.57
2022-11-28T01:12:58.796Z,25.63
2022-11-28T01:15:31.427Z,27.33
2022-11-28T01:18:02.715Z,27.13
2022-11-28T01:20:32.679Z,30.17
2022-11-28T01:23:02.691Z,28.33
2022-11-28T01:25:32.808Z,27.83
2022-11-28T01:28:02.898Z,28.10
2022-11-28T01:30:36.432Z,27.83
2022-11-28T01:33:06.484Z,28.93
2022-11-28T01:35:36.472Z,31.20
2022-11-28T01:38:06.545Z,31.00
2022-11-28T01:40:36.602Z,33.37
2022-11-28T01:43:06.640Z,26.90
2022-11-28T01:45:40.354Z,29.37
2022-11-28T01:48:14.271Z,28.50
2022-11-28T01:50:47.858Z,32.00
2022-11-28T01:53:18.969Z,33.27
2022-11-28T01:55:55.690Z,30.87
2022-11-28T01:58:26.864Z,35.13
2022-11-28T02:01:00.216Z,31.20
2022-11-28T02:03:36.285Z,36.00
2022-11-28T02:06:06.532Z,29.20
2022-11-28T02:08:38.047Z,30.63
2022-11-28T02:11:37.661Z,32.67
2022-11-28T02:14:18.404Z,32.63
2022-11-28T02:17:04.619Z,32.10
2022-11-28T02:20:05.103Z,33.40
2022-11-28T02:22:41.839Z,34.13
2022-11-28T02:25:43.047Z,33.30
2022-11-28T02:28:57.083Z,33.73
2022-11-28T02:31:45.840Z,33.60
2022-11-28T02:34:26.472Z,39.27
2022-11-28T02:37:06.197Z,36.50
2022-11-28T02:39:47.275Z,36.87
2022-11-28T02:42:22.870Z,37.07
2022-11-28T02:45:03.094Z,41.23
2022-11-28T02:47:36.321Z,36.77
2022-11-28T02:50:14.781Z,33.07
2022-11-28T02:52:49.524Z,43.93
2022-11-28T02:55:21.510Z,44.67
2022-11-28T02:57:53.857Z,41.70
2022-11-28T03:00:31.479Z,35.87
2022-11-28T03:03:13.611Z,41.63
2022-11-28T03:05:54.140Z,41.03
2022-11-28T03:08:38.854Z,45.30
2022-11-28T03:11:18.386Z,44.30
2022-11-28T03:13:56.454Z,40.40
2022-11-28T03:16:31.861Z,44.03
2022-11-28T03:19:12.079Z,43.87
2022-11-28T03:21:50.389Z,41.83
2022-11-28T03:24:25.749Z,45.27
2022-11-28T03:27:00.341Z,47.67
2022-11-28T03:29:37.321Z,41.30
2022-11-28T03:32:11.407Z,41.33
2022-11-28T03:34:45.012Z,38.90
2022-11-28T03:37:23.827Z,43.10
2022-11-28T03:40:02.085Z,40.00
2022-11-28T03:42:35.317Z,43.40
2022-11-28T03:45:10.962Z,39.27
2022-11-28T03:47:46.766Z,38.03
2022-11-28T03:50:21.172Z,38.83
2022-11-28T03:52:59.806Z,43.03
2022-11-28T03:55:36.639Z,34.30
2022-11-28T03:58:12.898Z,36.03
2022-11-28T04:00:52.591Z,33.97
2022-11-28T04:03:29.798Z,38.03
2022-11-28T04:06:05.399Z,41.73
2022-11-28T04:08:45.118Z,42.93
2022-11-28T04:11:18.492Z,35.40
2022-11-28T04:13:54.784Z,38.60
2022-11-28T04:16:32.955Z,37.17
2022-11-28T04:19:06.259Z,37.23
2022-11-28T04:21:44.199Z,42.47
2022-11-28T04:24:23.628Z,36.77
2022-11-28T04:27:00.786Z,38.17
2022-11-28T04:29:34.436Z,38.53
2022-11-28T04:32:06.704Z,39.87
2022-11-28T04:34:39.045Z,37.57
2022-11-28T04:37:10.593Z,39.87
2022-11-28T04:39:46.141Z,37.13
2022-11-28T04:42:18.876Z,34.27
2022-11-28T04:44:54.264Z,33.47
2022-11-28T04:47:25.124Z,31.33
2022-11-28T04:49:56.229Z,32.90
2022-11-28T04:52:35.438Z,33.37
2022-11-28T04:55:13.058Z,36.07
2022-11-28T04:57:46.101Z,42.50
2022-11-28T05:00:18.931Z,34.77
2022-11-28T05:02:52.574Z,41.57
2022-11-28T05:05:24.537Z,32.37
2022-11-28T05:07:55.142Z,34.70
2022-11-28T05:10:27.923Z,38.00
2022-11-28T05:12:57.917Z,39.70
2022-11-28T05:15:27.929Z,38.47
2022-11-28T05:17:57.843Z,40.00
2022-11-28T05:20:28.189Z,36.77
2022-11-28T05:22:58.305Z,41.97
2022-11-28T05:25:31.057Z,40.20
2022-11-28T05:28:01.627Z,37.90
2022-11-28T05:30:31.565Z,46.47
2022-11-28T05:33:02.210Z,40.97
2022-11-28T05:35:32.197Z,38.60
2022-11-28T05:38:02.139Z,41.43
2022-11-28T05:40:34.779Z,39.73
2022-11-28T05:43:04.724Z,41.67
2022-11-28T05:45:34.754Z,37.60
2022-11-28T05:48:04.760Z,42.57
2022-11-28T05:50:39.654Z,40.83
2022-11-28T05:53:10.098Z,37.90
2022-11-28T05:55:44.502Z,43.13
2022-11-28T05:58:14.635Z,41.40
2022-11-28T06:00:44.540Z,45.03
2022-11-28T06:03:14.478Z,46.13
2022-11-28T06:05:45.601Z,43.20
2022-11-28T06:08:16.087Z,46.93
2022-11-28T06:10:48.861Z,46.40
2022-11-28T06:13:19.052Z,45.27
2022-11-28T06:15:49.141Z,46.13
2022-11-28T06:18:19.137Z,43.57
2022-11-28T06:20:49.256Z,41.93
2022-11-28T06:23:19.172Z,51.70
2022-11-28T06:25:51.753Z,42.50
2022-11-28T06:28:21.701Z,46.47
2022-11-28T06:30:52.217Z,47.67
2022-11-28T06:33:22.518Z,45.63
2022-11-28T06:35:55.839Z,47.47
2022-11-28T06:38:25.832Z,42.40
2022-11-28T06:41:03.368Z,46.07
2022-11-28T06:43:33.638Z,48.57
2022-11-28T06:46:03.989Z,44.93
2022-11-28T06:48:34.150Z,46.67
2022-11-28T06:51:09.409Z,51.00
2022-11-28T06:53:39.569Z,43.30
2022-11-28T06:56:14.341Z,46.13
2022-11-28T06:58:46.889Z,44.60
2022-11-28T07:01:19.589Z,45.63
2022-11-28T07:03:50.568Z,44.23
2022-11-28T07:06:22.166Z,44.13
2022-11-28T07:08:52.208Z,47.03
2022-11-28T07:11:26.577Z,41.97
2022-11-28T07:13:57.735Z,48.30
2022-11-28T07:16:30.244Z,43.73
2022-11-28T07:19:01.280Z,46.30
2022-11-28T07:21:32.334Z,49.00
2022-11-28T07:24:03.257Z,45.70
2022-11-28T07:26:38.139Z,47.57
2022-11-28T07:29:10.140Z,46.60
2022-11-28T07:31:40.175Z,46.37
2022-11-28T07:34:10.308Z,51.10
2022-11-28T07:36:40.682Z,48.47
2022-11-28T07:39:19.281Z,47.03
2022-11-28T07:41:51.819Z,44.07
2022-11-28T07:44:22.075Z,46.60
2022-11-28T07:46:52.126Z,49.50
2022-11-28T07:49:22.129Z,55.37
2022-11-28T07:51:52.137Z,49.83
2022-11-28T07:54:24.389Z,50.00
2022-11-28T07:57:12.302Z,55.97
2022-11-28T07:59:43.878Z,56.63
2022-11-28T08:02:14.868Z,55.23
2022-11-28T08:04:49.580Z,51.17
2022-11-28T08:07:21.964Z,54.30
2022-11-28T08:09:51.963Z,48.43
2022-11-28T08:12:24.602Z,58.53
2022-11-28T08:14:54.506Z,55.97
2022-11-28T08:17:24.695Z,49.27
2022-11-28T08:19:54.894Z,46.27
2022-11-28T08:22:24.794Z,53.97
2022-11-28T08:24:54.765Z,55.97
2022-11-28T08:27:27.342Z,52.40
2022-11-28T08:29:57.282Z,53.10
2022-11-28T08:32:27.226Z,50.37
2022-11-28T08:34:57.249Z,47.67
2022-11-28T08:37:27.216Z,50.63
2022-11-28T08:39:57.172Z,44.83
2022-11-28T08:42:31.066Z,45.60
2022-11-28T08:45:01.046Z,50.70
2022-11-28T08:47:31.124Z,48.40
2022-11-28T08:50:01.138Z,45.63
2022-11-28T08:52:31.078Z,42.97
2022-11-28T08:55:01.069Z,49.57
2022-11-28T08:57:33.581Z,50.20
2022-11-28T09:00:04.536Z,49.90
2022-11-28T09:02:34.476Z,45.50
2022-11-28T09:05:04.791Z,43.73
2022-11-28T09:07:34.798Z,47.57
2022-11-28T09:10:05.661Z,45.70
2022-11-28T09:12:38.278Z,49.00
2022-11-28T09:15:09.759Z,42.00
2022-11-28T09:17:39.871Z,44.47
2022-11-28T09:20:11.193Z,45.20
2022-11-28T09:22:42.631Z,42.80
2022-11-28T09:25:13.222Z,40.47
2022-11-28T09:27:46.286Z,46.83
2022-11-28T09:30:17.123Z,45.33
2022-11-28T09:32:50.973Z,44.03
2022-11-28T09:35:21.572Z,43.83
2022-11-28T09:37:51.599Z,41.97
2022-11-28T09:40:28.355Z,45.23
2022-11-28T09:43:04.065Z,43.83
2022-11-28T09:45:34.457Z,43.60
2022-11-28T09:48:13.458Z,45.13
2022-11-28T09:50:45.566Z,43.30
2022-11-28T09:53:24.135Z,43.40
2022-11-28T09:55:57.432Z,40.50
2022-11-28T09:58:36.693Z,44.70
2022-11-28T10:01:18.474Z,40.87
2022-11-28T10:03:56.935Z,42.03
2022-11-28T10:06:31.402Z,41.27
2022-11-28T10:09:19.254Z,48.57
2022-11-28T10:11:58.044Z,43.93
2022-11-28T10:14:49.924Z,40.77
2022-11-28T10:17:27.665Z,44.50
2022-11-28T10:20:02.656Z,47.57
2022-11-28T10:22:40.411Z,43.37
2022-11-28T10:25:19.349Z,45.27
2022-11-28T10:27:50.809Z,43.90
2022-11-28T10:30:28.926Z,44.33
2022-11-28T10:33:04.553Z,43.27
2022-11-28T10:35:42.391Z,41.70
2022-11-28T10:38:15.594Z,40.10
2022-11-28T10:40:51.696Z,44.67
2022-11-28T10:43:35.290Z,43.50
2022-11-28T10:46:23.151Z,41.53
2022-11-28T10:48:58.949Z,38.37
2022-11-28T10:51:37.664Z,41.37
2022-11-28T10:54:22.489Z,40.87
2022-11-28T10:57:05.626Z,39.67
2022-11-28T10:59:50.819Z,39.10
2022-11-28T11:02:30.106Z,37.93
2022-11-28T11:05:00.347Z,41.23
2022-11-28T11:07:32.780Z,37.93
2022-11-28T11:10:15.888Z,41.13
2022-11-28T11:12:46.995Z,38.37
2022-11-28T11:15:26.984Z,37.47
2022-11-28T11:17:59.801Z,35.37
2022-11-28T11:20:34.327Z,38.67
2022-11-28T11:23:14.574Z,33.80
2022-11-28T11:25:52.525Z,37.83
2022-11-28T11:28:37.384Z,36.43
2022-11-28T11:31:17.368Z,35.33
2022-11-28T11:33:51.560Z,38.93
2022-11-28T11:36:29.944Z,40.47
2022-11-28T11:39:18.084Z,31.17
2022-11-28T11:41:52.109Z,33.80
2022-11-28T11:44:37.040Z,34.67
2022-11-28T11:47:09.721Z,34.60
2022-11-28T11:49:45.046Z,34.87
2022-11-28T11:52:23.797Z,36.80
2022-11-28T11:55:00.255Z,35.53
2022-11-28T11:57:35.248Z,39.27
2022-11-28T12:00:09.951Z,41.87
2022-11-28T12:02:47.483Z,40.70
2022-11-28T12:05:22.867Z,42.80
2022-11-28T12:08:00.096Z,46.00
2022-11-28T12:10:33.015Z,47.43
2022-11-28T12:13:04.731Z,45.23
2022-11-28T12:15:42.928Z,46.03
2022-11-28T12:18:23.573Z,45.87
2022-11-28T12:21:09.317Z,45.83
2022-11-28T12:23:51.031Z,45.23
2022-11-28T12:26:26.644Z,55.60
2022-11-28T12:29:09.464Z,53.27
2022-11-28T12:31:52.333Z,47.97
2022-11-28T12:34:33.848Z,48.40
2022-11-28T12:37:15.213Z,53.27
2022-11-28T12:39:57.810Z,50.73
2022-11-28T12:42:47.657Z,50.73
2022-11-28T12:45:39.621Z,51.10
2022-11-28T12:48:35.424Z,49.63
2022-11-28T12:51:15.652Z,47.83
2022-11-28T12:54:02.254Z,55.33
2022-11-28T12:56:48.663Z,52.70
2022-11-28T12:59:28.615Z,49.50
2022-11-28T13:02:09.744Z,47.80
2022-11-28T13:05:10.480Z,50.83
2022-11-28T13:07:50.251Z,48.87
2022-11-28T13:10:29.615Z,52.03
2022-11-28T13:13:03.969Z,48.53
2022-11-28T13:15:51.359Z,50.87
2022-11-28T13:18:35.447Z,55.27
2022-11-28T13:21:30.717Z,52.17
2022-11-28T13:24:07.490Z,60.07
2022-11-28T13:26:49.188Z,53.63
2022-11-28T13:29:29.222Z,55.73
2022-11-28T13:32:10.447Z,61.97
2022-11-28T13:34:41.373Z,63.67
2022-11-28T13:40:21.279Z,58.33
2022-11-28T13:43:06.542Z,59.43
2022-11-28T13:45:39.743Z,63.50
2022-11-28T13:49:12.439Z,59.20
2022-11-28T13:51:32.750Z,54.33
2022-11-28T13:54:46.052Z,57.03
2022-11-28T13:57:41.076Z,56.73
2022-11-28T14:00:27.796Z,54.83
2022-11-28T14:03:00.334Z,53.77
2022-11-28T14:05:34.579Z,57.53
2022-11-28T14:08:05.984Z,58.30
2022-11-28T14:10:51.667Z,58.63
2022-11-28T14:13:48.299Z,57.87
2022-11-28T14:16:35.583Z,58.80
2022-11-28T14:19:21.021Z,63.90
2022-11-28T14:22:04.673Z,61.80
2022-11-28T14:24:54.288Z,57.37
2022-11-28T14:27:26.697Z,58.90
2022-11-28T14:29:59.549Z,59.07
2022-11-28T14:32:37.191Z,57.13
2022-11-28T14:35:09.661Z,61.43
2022-11-28T14:37:54.546Z,59.10
2022-11-28T14:41:06.484Z,54.17
2022-11-28T14:43:39.696Z,57.30
2022-11-28T14:46:34.877Z,55.80
2022-11-28T14:49:26.512Z,59.07
2022-11-28T14:52:39.459Z,64.73
2022-11-28T14:55:23.758Z,60.93
2022-11-28T14:57:59.539Z,58.93
2022-11-28T15:00:31.727Z,57.47
2022-11-28T15:03:17.416Z,57.97
2022-11-28T15:05:53.410Z,60.33
2022-11-28T15:08:39.686Z,60.37
2022-11-28T15:11:36.122Z,56.17
2022-11-28T15:14:23.545Z,55.63
2022-11-28T15:16:58.211Z,64.03
2022-11-28T15:19:33.764Z,57.43
2022-11-28T15:22:06.485Z,57.37
2022-11-28T15:24:38.675Z,58.13
2022-11-28T15:27:30.595Z,57.07
2022-11-28T15:30:04.491Z,55.17
2022-11-28T15:32:35.437Z,62.07
2022-11-28T15:35:12.472Z,58.07
2022-11-28T15:37:51.229Z,50.73
2022-11-28T15:40:25.252Z,56.53
2022-11-28T15:42:55.941Z,57.37
2022-11-28T15:45:29.529Z,65.03
2022-11-28T15:48:00.115Z,54.77
2022-11-28T15:50:34.019Z,52.43
2022-11-28T15:53:17.497Z,53.10
2022-11-28T15:55:48.034Z,55.30
2022-11-28T15:58:23.761Z,56.53
2022-11-28T16:00:59.276Z,63.37
2022-11-28T16:03:34.889Z,58.70
2022-11-28T16:06:06.675Z,54.23
2022-11-28T16:08:42.948Z,58.33
2022-11-28T16:11:13.615Z,63.43
2022-11-28T16:13:43.782Z,60.07
2022-11-28T16:16:17.712Z,56.57
2022-11-28T16:18:49.375Z,60.63
2022-11-28T16:21:19.441Z,53.57
2022-11-28T16:23:52.226Z,58.67
2022-11-28T16:26:26.284Z,59.50
2022-11-28T16:29:03.630Z,61.17
2022-11-28T16:31:33.997Z,59.50
2022-11-28T16:34:05.976Z,58.53
2022-11-28T16:36:39.439Z,60.07
2022-11-28T16:39:17.790Z,69.87
2022-11-28T16:41:54.835Z,67.40
2022-11-28T16:44:28.194Z,65.53
2022-11-28T16:47:00.166Z,72.10
2022-11-28T16:49:37.422Z,66.40
2022-11-28T16:52:46.526Z,75.13
2022-11-28T16:55:44.386Z,62.60
2022-11-28T16:58:23.612Z,69.93
2022-11-28T17:01:04.963Z,68.60
2022-11-28T17:03:49.895Z,71.67
2022-11-28T17:06:29.098Z,70.47
2022-11-28T17:08:59.471Z,74.67
2022-11-28T17:11:36.376Z,70.33
2022-11-28T17:14:13.109Z,71.83
2022-11-28T17:16:45.368Z,71.60
2022-11-28T17:19:15.460Z,70.93
2022-11-28T17:21:48.024Z,81.90
2022-11-28T17:24:20.471Z,76.80
2022-11-28T17:26:54.303Z,69.97
2022-11-28T17:29:25.384Z,76.10
2022-11-28T17:31:57.745Z,69.60
2022-11-28T17:34:30.878Z,75.57
2022-11-28T17:37:01.155Z,76.77
2022-11-28T17:39:31.640Z,71.37
2022-11-28T17:42:04.513Z,76.67
2022-11-28T17:44:37.642Z,78.43
2022-11-28T17:47:08.416Z,79.63
2022-11-28T17:49:43.129Z,79.93
2022-11-28T17:52:16.059Z,80.33
2022-11-28T17:54:46.005Z,77.87
2022-11-28T17:57:18.648Z,79.20
2022-11-28T17:59:48.947Z,75.13
2022-11-28T18:02:18.985Z,81.20
2022-11-28T18:04:49.134Z,80.47
2022-11-28T18:07:19.236Z,76.40
2022-11-28T18:09:49.307Z,71.73
2022-11-28T18:12:21.868Z,74.67
2022-11-28T18:14:51.867Z,73.53
2022-11-28T18:17:21.956Z,79.93
2022-11-28T18:19:57.128Z,74.37
2022-11-28T18:22:27.685Z,70.10
2022-11-28T18:24:57.702Z,76.93
2022-11-28T18:27:30.861Z,70.07
2022-11-28T18:30:01.096Z,76.97
2022-11-28T18:32:31.280Z,72.50
2022-11-28T18:35:01.536Z,78.90
2022-11-28T18:37:31.611Z,76.70
2022-11-28T18:40:05.056Z,73.17
2022-11-28T18:42:41.367Z,74.10
2022-11-28T18:45:13.493Z,76.90
2022-11-28T18:47:43.905Z,77.33
2022-11-28T18:50:14.763Z,71.53
2022-11-28T18:52:44.854Z,73.37
2022-11-28T18:55:15.755Z,71.57
2022-11-28T18:57:48.490Z,78.67
2022-11-28T19:00:19.760Z,78.73
2022-11-28T19:02:53.225Z,77.63
2022-11-28T19:05:23.227Z,82.47
2022-11-28T19:07:53.468Z,73.27
2022-11-28T19:10:23.752Z,79.03
